sensor_id;sensor_type;location;lat;lon;timestamp;P1;durP1;ratioP1;P2;durP2;ratioP2
2041;SDS011;1026;51.460;7.252;2023-07-16T00:00:17;1.50;;;1.40;;
2041;SDS011;1026;51.460;7.252;2023-07-16T00:02:46;1.50;;;1.40;;
2041;SDS011;1026;51.460;7.252;2023-07-16T00:05:19;1.90;;;1.80;;
2041;SDS011;1026;51.460;7.252;2023-07-16T00:07:53;1.50;;;1.40;;
2041;SDS011;1026;51.460;7.252;2023-07-16T00:10:20;2.00;;;1.67;;
2041;SDS011;1026;51.460;7.252;2023-07-16T00:12:47;1.80;;;1.70;;
2041;SDS011;1026;51.460;7.252;2023-07-16T00:15:20;1.80;;;1.70;;
2041;SDS011;1026;51.460;7.252;2023-07-16T00:17:53;1.60;;;1.50;;
2041;SDS011;1026;51.460;7.252;2023-07-16T00:20:21;2.80;;;1.70;;
2041;SDS011;1026;51.460;7.252;2023-07-16T00:22:56;1.83;;;1.73;;
2041;SDS011;1026;51.460;7.252;2023-07-16T00:25:29;1.80;;;1.70;;
2041;SDS011;1026;51.460;7.252;2023-07-16T00:27:57;2.93;;;2.00;;
2041;SDS011;1026;51.460;7.252;2023-07-16T00:30:30;1.70;;;1.60;;
2041;SDS011;1026;51.460;7.252;2023-07-16T00:32:57;2.20;;;1.33;;
2041;SDS011;1026;51.460;7.252;2023-07-16T00:35:24;2.53;;;2.33;;
2041;SDS011;1026;51.460;7.252;2023-07-16T00:37:57;2.20;;;1.53;;
2041;SDS011;1026;51.460;7.252;2023-07-16T00:40:24;1.60;;;1.50;;
2041;SDS011;1026;51.460;7.252;2023-07-16T00:42:51;1.73;;;1.63;;
2041;SDS011;1026;51.460;7.252;2023-07-16T00:45:24;2.47;;;1.90;;
2041;SDS011;1026;51.460;7.252;2023-07-16T00:47:58;1.77;;;1.67;;
2041;SDS011;1026;51.460;7.252;2023-07-16T00:50:36;2.13;;;1.77;;
2041;SDS011;1026;51.460;7.252;2023-07-16T00:53:12;1.63;;;1.53;;
2041;SDS011;1026;51.460;7.252;2023-07-16T00:55:39;2.27;;;2.07;;
2041;SDS011;1026;51.460;7.252;2023-07-16T00:58:06;1.77;;;1.67;;
2041;SDS011;1026;51.460;7.252;2023-07-16T01:00:40;1.93;;;1.80;;
2041;SDS011;1026;51.460;7.252;2023-07-16T01:03:14;4.93;;;1.63;;
2041;SDS011;1026;51.460;7.252;2023-07-16T01:05:46;1.40;;;1.30;;
2041;SDS011;1026;51.460;7.252;2023-07-16T01:08:30;1.93;;;1.80;;
2041;SDS011;1026;51.460;7.252;2023-07-16T01:11:09;1.50;;;1.40;;
2041;SDS011;1026;51.460;7.252;2023-07-16T01:13:49;3.10;;;1.60;;
2041;SDS011;1026;51.460;7.252;2023-07-16T01:16:31;1.70;;;1.60;;
2041;SDS011;1026;51.460;7.252;2023-07-16T01:19:05;1.77;;;1.67;;
2041;SDS011;1026;51.460;7.252;2023-07-16T01:21:39;1.40;;;1.30;;
2041;SDS011;1026;51.460;7.252;2023-07-16T01:27:59;1.30;;;1.20;;
2041;SDS011;1026;51.460;7.252;2023-07-16T01:30:46;1.50;;;1.40;;
2041;SDS011;1026;51.460;7.252;2023-07-16T01:33:20;1.93;;;1.73;;
2041;SDS011;1026;51.460;7.252;2023-07-16T01:35:48;1.10;;;0.93;;
2041;SDS011;1026;51.460;7.252;2023-07-16T01:38:23;1.70;;;1.60;;
2041;SDS011;1026;51.460;7.252;2023-07-16T01:40:58;1.40;;;1.30;;
2041;SDS011;1026;51.460;7.252;2023-07-16T01:43:31;1.50;;;1.40;;
2041;SDS011;1026;51.460;7.252;2023-07-16T01:45:58;2.03;;;1.40;;
2041;SDS011;1026;51.460;7.252;2023-07-16T01:48:35;1.37;;;1.27;;
2041;SDS011;1026;51.460;7.252;2023-07-16T01:51:10;4.00;;;1.87;;
2041;SDS011;1026;51.460;7.252;2023-07-16T01:53:40;2.50;;;1.93;;
2041;SDS011;1026;51.460;7.252;2023-07-16T01:56:14;1.70;;;1.60;;
2041;SDS011;1026;51.460;7.252;2023-07-16T01:58:42;1.40;;;1.30;;
2041;SDS011;1026;51.460;7.252;2023-07-16T02:01:15;1.40;;;1.30;;
2041;SDS011;1026;51.460;7.252;2023-07-16T02:03:49;1.53;;;1.43;;
2041;SDS011;1026;51.460;7.252;2023-07-16T02:06:17;1.50;;;1.40;;
2041;SDS011;1026;51.460;7.252;2023-07-16T02:08:50;2.10;;;1.83;;
2041;SDS011;1026;51.460;7.252;2023-07-16T02:11:23;1.53;;;1.40;;
2041;SDS011;1026;51.460;7.252;2023-07-16T02:13:57;1.93;;;1.20;;
2041;SDS011;1026;51.460;7.252;2023-07-16T02:16:30;2.27;;;1.50;;
2041;SDS011;1026;51.460;7.252;2023-07-16T02:18:58;1.70;;;1.60;;
2041;SDS011;1026;51.460;7.252;2023-07-16T02:21:31;1.50;;;1.30;;
2041;SDS011;1026;51.460;7.252;2023-07-16T02:23:58;1.57;;;1.47;;
2041;SDS011;1026;51.460;7.252;2023-07-16T02:26:32;1.73;;;1.53;;
2041;SDS011;1026;51.460;7.252;2023-07-16T02:28:59;1.53;;;1.40;;
2041;SDS011;1026;51.460;7.252;2023-07-16T02:31:32;1.63;;;1.53;;
2041;SDS011;1026;51.460;7.252;2023-07-16T02:33:59;1.80;;;1.33;;
2041;SDS011;1026;51.460;7.252;2023-07-16T02:36:32;1.40;;;1.30;;
2041;SDS011;1026;51.460;7.252;2023-07-16T02:38:59;1.37;;;1.27;;
2041;SDS011;1026;51.460;7.252;2023-07-16T02:41:26;1.27;;;1.17;;
2041;SDS011;1026;51.460;7.252;2023-07-16T02:44:00;1.70;;;1.60;;
2041;SDS011;1026;51.460;7.252;2023-07-16T02:46:41;2.30;;;1.60;;
2041;SDS011;1026;51.460;7.252;2023-07-16T02:49:14;1.50;;;1.40;;
2041;SDS011;1026;51.460;7.252;2023-07-16T02:51:41;1.57;;;1.47;;
2041;SDS011;1026;51.460;7.252;2023-07-16T02:54:14;1.53;;;1.33;;
2041;SDS011;1026;51.460;7.252;2023-07-16T02:56:47;1.90;;;1.70;;
2041;SDS011;1026;51.460;7.252;2023-07-16T02:59:14;2.40;;;2.20;;
2041;SDS011;1026;51.460;7.252;2023-07-16T03:01:47;1.30;;;1.20;;
2041;SDS011;1026;51.460;7.252;2023-07-16T03:04:14;1.53;;;1.43;;
2041;SDS011;1026;51.460;7.252;2023-07-16T03:06:47;1.37;;;1.27;;
2041;SDS011;1026;51.460;7.252;2023-07-16T03:09:17;1.50;;;1.40;;
2041;SDS011;1026;51.460;7.252;2023-07-16T03:11:47;3.30;;;1.57;;
2041;SDS011;1026;51.460;7.252;2023-07-16T03:14:41;2.50;;;1.83;;
2041;SDS011;1026;51.460;7.252;2023-07-16T03:17:15;1.70;;;1.50;;
2041;SDS011;1026;51.460;7.252;2023-07-16T03:19:57;1.70;;;1.60;;
2041;SDS011;1026;51.460;7.252;2023-07-16T03:22:30;1.33;;;1.20;;
2041;SDS011;1026;51.460;7.252;2023-07-16T03:24:58;1.80;;;1.53;;
2041;SDS011;1026;51.460;7.252;2023-07-16T03:27:25;2.10;;;1.60;;
2041;SDS011;1026;51.460;7.252;2023-07-16T03:29:58;4.60;;;1.70;;
2041;SDS011;1026;51.460;7.252;2023-07-16T03:32:25;1.60;;;1.50;;
2041;SDS011;1026;51.460;7.252;2023-07-16T03:35:16;1.67;;;1.57;;
2041;SDS011;1026;51.460;7.252;2023-07-16T03:37:43;4.27;;;1.93;;
2041;SDS011;1026;51.460;7.252;2023-07-16T03:40:17;1.70;;;1.33;;
2041;SDS011;1026;51.460;7.252;2023-07-16T03:42:48;1.47;;;1.37;;
2041;SDS011;1026;51.460;7.252;2023-07-16T03:45:35;1.90;;;1.50;;
2041;SDS011;1026;51.460;7.252;2023-07-16T03:48:08;1.67;;;1.57;;
2041;SDS011;1026;51.460;7.252;2023-07-16T03:50:35;2.03;;;1.67;;
2041;SDS011;1026;51.460;7.252;2023-07-16T03:53:02;2.60;;;1.80;;
2041;SDS011;1026;51.460;7.252;2023-07-16T03:55:35;1.67;;;1.57;;
2041;SDS011;1026;51.460;7.252;2023-07-16T03:58:08;1.87;;;1.30;;
2041;SDS011;1026;51.460;7.252;2023-07-16T04:00:41;2.00;;;1.80;;
2041;SDS011;1026;51.460;7.252;2023-07-16T04:03:10;2.30;;;1.70;;
2041;SDS011;1026;51.460;7.252;2023-07-16T04:05:37;1.67;;;1.20;;
2041;SDS011;1026;51.460;7.252;2023-07-16T04:08:10;1.93;;;1.83;;
2041;SDS011;1026;51.460;7.252;2023-07-16T04:10:50;1.83;;;1.37;;
2041;SDS011;1026;51.460;7.252;2023-07-16T04:13:19;1.63;;;1.40;;
2041;SDS011;1026;51.460;7.252;2023-07-16T04:15:52;1.43;;;1.33;;
2041;SDS011;1026;51.460;7.252;2023-07-16T04:18:21;2.57;;;2.07;;
2041;SDS011;1026;51.460;7.252;2023-07-16T04:20:48;2.03;;;1.83;;
2041;SDS011;1026;51.460;7.252;2023-07-16T04:23:22;2.47;;;1.70;;
2041;SDS011;1026;51.460;7.252;2023-07-16T04:25:52;2.00;;;1.67;;
2041;SDS011;1026;51.460;7.252;2023-07-16T04:28:26;2.23;;;1.50;;
2041;SDS011;1026;51.460;7.252;2023-07-16T04:30:53;3.70;;;1.50;;
2041;SDS011;1026;51.460;7.252;2023-07-16T04:33:26;1.80;;;1.40;;
2041;SDS011;1026;51.460;7.252;2023-07-16T04:35:53;1.90;;;1.50;;
2041;SDS011;1026;51.460;7.252;2023-07-16T04:38:20;1.30;;;1.20;;
2041;SDS011;1026;51.460;7.252;2023-07-16T04:40:53;2.80;;;1.53;;
2041;SDS011;1026;51.460;7.252;2023-07-16T04:43:27;2.10;;;1.63;;
2041;SDS011;1026;51.460;7.252;2023-07-16T04:46:07;1.50;;;1.40;;
2041;SDS011;1026;51.460;7.252;2023-07-16T04:48:41;1.77;;;1.63;;
2041;SDS011;1026;51.460;7.252;2023-07-16T04:51:08;1.40;;;1.30;;
2041;SDS011;1026;51.460;7.252;2023-07-16T04:53:35;3.17;;;1.80;;
2041;SDS011;1026;51.460;7.252;2023-07-16T04:56:12;1.97;;;1.37;;
2041;SDS011;1026;51.460;7.252;2023-07-16T04:58:40;1.77;;;1.67;;
2041;SDS011;1026;51.460;7.252;2023-07-16T05:01:13;1.60;;;1.50;;
2041;SDS011;1026;51.460;7.252;2023-07-16T05:03:47;1.87;;;1.47;;
2041;SDS011;1026;51.460;7.252;2023-07-16T05:06:14;2.77;;;1.83;;
2041;SDS011;1026;51.460;7.252;2023-07-16T05:08:47;1.73;;;1.50;;
2041;SDS011;1026;51.460;7.252;2023-07-16T05:11:14;2.47;;;1.73;;
2041;SDS011;1026;51.460;7.252;2023-07-16T05:13:41;2.60;;;2.20;;
2041;SDS011;1026;51.460;7.252;2023-07-16T05:16:14;1.83;;;1.57;;
2041;SDS011;1026;51.460;7.252;2023-07-16T05:18:42;1.50;;;1.40;;
2041;SDS011;1026;51.460;7.252;2023-07-16T05:21:15;2.17;;;1.80;;
2041;SDS011;1026;51.460;7.252;2023-07-16T05:23:42;1.90;;;1.57;;
2041;SDS011;1026;51.460;7.252;2023-07-16T05:26:15;4.30;;;1.73;;
2041;SDS011;1026;51.460;7.252;2023-07-16T05:28:43;2.13;;;1.47;;
2041;SDS011;1026;51.460;7.252;2023-07-16T05:31:16;4.50;;;1.90;;
2041;SDS011;1026;51.460;7.252;2023-07-16T05:33:43;2.60;;;1.70;;
2041;SDS011;1026;51.460;7.252;2023-07-16T05:36:10;2.10;;;2.00;;
2041;SDS011;1026;51.460;7.252;2023-07-16T05:38:44;2.13;;;1.60;;
2041;SDS011;1026;51.460;7.252;2023-07-16T05:41:17;2.00;;;1.80;;
2041;SDS011;1026;51.460;7.252;2023-07-16T05:43:48;1.97;;;1.60;;
2041;SDS011;1026;51.460;7.252;2023-07-16T05:46:35;2.30;;;2.13;;
2041;SDS011;1026;51.460;7.252;2023-07-16T05:49:02;2.30;;;1.80;;
2041;SDS011;1026;51.460;7.252;2023-07-16T05:51:35;1.73;;;1.40;;
2041;SDS011;1026;51.460;7.252;2023-07-16T05:54:02;2.20;;;2.00;;
2041;SDS011;1026;51.460;7.252;2023-07-16T05:56:29;2.63;;;1.60;;
2041;SDS011;1026;51.460;7.252;2023-07-16T05:59:02;3.77;;;1.97;;
2041;SDS011;1026;51.460;7.252;2023-07-16T06:01:29;4.20;;;1.50;;
2041;SDS011;1026;51.460;7.252;2023-07-16T06:03:56;2.70;;;1.80;;
2041;SDS011;1026;51.460;7.252;2023-07-16T06:06:30;2.03;;;1.50;;
2041;SDS011;1026;51.460;7.252;2023-07-16T06:08:57;2.17;;;1.97;;
2041;SDS011;1026;51.460;7.252;2023-07-16T06:11:30;2.43;;;2.10;;
2041;SDS011;1026;51.460;7.252;2023-07-16T06:13:57;2.30;;;2.10;;
2041;SDS011;1026;51.460;7.252;2023-07-16T06:16:25;3.73;;;2.00;;
2041;SDS011;1026;51.460;7.252;2023-07-16T06:18:57;2.20;;;1.80;;
2041;SDS011;1026;51.460;7.252;2023-07-16T06:21:24;2.17;;;1.67;;
2041;SDS011;1026;51.460;7.252;2023-07-16T06:23:51;2.30;;;1.67;;
2041;SDS011;1026;51.460;7.252;2023-07-16T06:26:24;1.57;;;1.47;;
2041;SDS011;1026;51.460;7.252;2023-07-16T06:28:51;3.03;;;1.70;;
2041;SDS011;1026;51.460;7.252;2023-07-16T06:31:24;2.43;;;1.83;;
2041;SDS011;1026;51.460;7.252;2023-07-16T06:33:52;2.33;;;2.10;;
2041;SDS011;1026;51.460;7.252;2023-07-16T06:36:19;2.80;;;2.27;;
2041;SDS011;1026;51.460;7.252;2023-07-16T06:38:53;3.40;;;2.43;;
2041;SDS011;1026;51.460;7.252;2023-07-16T06:41:20;2.80;;;2.33;;
2041;SDS011;1026;51.460;7.252;2023-07-16T06:43:47;2.03;;;1.73;;
2041;SDS011;1026;51.460;7.252;2023-07-16T06:46:20;3.23;;;2.47;;
2041;SDS011;1026;51.460;7.252;2023-07-16T06:48:54;1.67;;;1.40;;
2041;SDS011;1026;51.460;7.252;2023-07-16T06:51:27;2.67;;;2.30;;
2041;SDS011;1026;51.460;7.252;2023-07-16T06:53:56;3.27;;;2.43;;
2041;SDS011;1026;51.460;7.252;2023-07-16T06:56:29;2.17;;;1.90;;
2041;SDS011;1026;51.460;7.252;2023-07-16T06:58:56;3.17;;;2.53;;
2041;SDS011;1026;51.460;7.252;2023-07-16T07:01:23;3.43;;;2.40;;
2041;SDS011;1026;51.460;7.252;2023-07-16T07:03:57;3.13;;;2.10;;
2041;SDS011;1026;51.460;7.252;2023-07-16T07:06:30;4.23;;;2.50;;
2041;SDS011;1026;51.460;7.252;2023-07-16T07:08:57;6.30;;;3.67;;
2041;SDS011;1026;51.460;7.252;2023-07-16T07:11:24;4.13;;;3.20;;
2041;SDS011;1026;51.460;7.252;2023-07-16T07:13:57;3.13;;;2.93;;
2041;SDS011;1026;51.460;7.252;2023-07-16T07:16:24;4.67;;;4.07;;
2041;SDS011;1026;51.460;7.252;2023-07-16T07:18:58;5.60;;;4.07;;
2041;SDS011;1026;51.460;7.252;2023-07-16T07:21:24;5.00;;;4.10;;
2041;SDS011;1026;51.460;7.252;2023-07-16T07:23:57;4.53;;;3.30;;
2041;SDS011;1026;51.460;7.252;2023-07-16T07:26:24;5.13;;;3.57;;
2041;SDS011;1026;51.460;7.252;2023-07-16T07:28:51;4.23;;;3.60;;
2041;SDS011;1026;51.460;7.252;2023-07-16T07:31:24;4.67;;;3.70;;
2041;SDS011;1026;51.460;7.252;2023-07-16T07:33:52;4.50;;;3.40;;
2041;SDS011;1026;51.460;7.252;2023-07-16T07:36:19;4.63;;;4.13;;
2041;SDS011;1026;51.460;7.252;2023-07-16T07:38:52;6.30;;;3.57;;
2041;SDS011;1026;51.460;7.252;2023-07-16T07:41:26;4.30;;;3.80;;
2041;SDS011;1026;51.460;7.252;2023-07-16T07:44:05;3.63;;;3.13;;
2041;SDS011;1026;51.460;7.252;2023-07-16T07:46:39;6.00;;;3.83;;
2041;SDS011;1026;51.460;7.252;2023-07-16T07:49:05;4.13;;;3.73;;
2041;SDS011;1026;51.460;7.252;2023-07-16T07:51:32;6.60;;;4.00;;
2041;SDS011;1026;51.460;7.252;2023-07-16T07:54:06;5.03;;;3.80;;
2041;SDS011;1026;51.460;7.252;2023-07-16T07:56:32;3.80;;;3.40;;
2041;SDS011;1026;51.460;7.252;2023-07-16T07:58:59;5.03;;;3.83;;
2041;SDS011;1026;51.460;7.252;2023-07-16T08:01:33;4.30;;;3.90;;
2041;SDS011;1026;51.460;7.252;2023-07-16T08:04:05;5.33;;;3.07;;
2041;SDS011;1026;51.460;7.252;2023-07-16T08:06:32;4.20;;;3.17;;
2041;SDS011;1026;51.460;7.252;2023-07-16T08:09:06;4.20;;;3.77;;
2041;SDS011;1026;51.460;7.252;2023-07-16T08:11:32;4.07;;;3.67;;
2041;SDS011;1026;51.460;7.252;2023-07-16T08:13:59;4.60;;;4.00;;
2041;SDS011;1026;51.460;7.252;2023-07-16T08:16:33;4.97;;;4.30;;
2041;SDS011;1026;51.460;7.252;2023-07-16T08:19:00;3.90;;;3.47;;
2041;SDS011;1026;51.460;7.252;2023-07-16T08:21:26;3.80;;;3.50;;
2041;SDS011;1026;51.460;7.252;2023-07-16T08:24:00;4.03;;;3.67;;
2041;SDS011;1026;51.460;7.252;2023-07-16T08:26:26;4.93;;;4.47;;
2041;SDS011;1026;51.460;7.252;2023-07-16T08:29:00;4.63;;;3.60;;
2041;SDS011;1026;51.460;7.252;2023-07-16T08:31:27;3.70;;;3.40;;
2041;SDS011;1026;51.460;7.252;2023-07-16T08:34:01;4.50;;;3.17;;
2041;SDS011;1026;51.460;7.252;2023-07-16T08:36:30;3.13;;;2.93;;
2041;SDS011;1026;51.460;7.252;2023-07-16T08:38:59;5.13;;;4.00;;
2041;SDS011;1026;51.460;7.252;2023-07-16T08:41:33;3.90;;;3.50;;
2041;SDS011;1026;51.460;7.252;2023-07-16T08:43:59;3.63;;;3.33;;
2041;SDS011;1026;51.460;7.252;2023-07-16T08:46:47;4.67;;;3.90;;
2041;SDS011;1026;51.460;7.252;2023-07-16T08:49:14;4.90;;;3.83;;
2041;SDS011;1026;51.460;7.252;2023-07-16T08:51:52;3.63;;;3.33;;
2041;SDS011;1026;51.460;7.252;2023-07-16T08:54:21;5.40;;;3.50;;
2041;SDS011;1026;51.460;7.252;2023-07-16T08:56:49;5.00;;;3.60;;
2041;SDS011;1026;51.460;7.252;2023-07-16T08:59:24;8.77;;;4.00;;
2041;SDS011;1026;51.460;7.252;2023-07-16T09:01:52;4.53;;;3.53;;
2041;SDS011;1026;51.460;7.252;2023-07-16T09:04:26;4.17;;;3.77;;
2041;SDS011;1026;51.460;7.252;2023-07-16T09:06:53;4.07;;;3.53;;
2041;SDS011;1026;51.460;7.252;2023-07-16T09:09:27;4.07;;;3.67;;
2041;SDS011;1026;51.460;7.252;2023-07-16T09:11:54;3.30;;;3.10;;
2041;SDS011;1026;51.460;7.252;2023-07-16T09:14:21;4.87;;;3.67;;
2041;SDS011;1026;51.460;7.252;2023-07-16T09:16:55;4.60;;;2.93;;
2041;SDS011;1026;51.460;7.252;2023-07-16T09:19:21;4.53;;;3.60;;
2041;SDS011;1026;51.460;7.252;2023-07-16T09:21:55;4.57;;;3.70;;
2041;SDS011;1026;51.460;7.252;2023-07-16T09:24:21;4.37;;;4.00;;
2041;SDS011;1026;51.460;7.252;2023-07-16T09:26:49;4.37;;;3.97;;
2041;SDS011;1026;51.460;7.252;2023-07-16T09:29:24;4.27;;;3.87;;
2041;SDS011;1026;51.460;7.252;2023-07-16T09:31:59;4.80;;;3.60;;
2041;SDS011;1026;51.460;7.252;2023-07-16T09:34:51;3.70;;;3.13;;
2041;SDS011;1026;51.460;7.252;2023-07-16T09:37:20;6.20;;;3.70;;
2041;SDS011;1026;51.460;7.252;2023-07-16T09:39:54;3.97;;;3.67;;
2041;SDS011;1026;51.460;7.252;2023-07-16T09:42:21;5.93;;;3.90;;
2041;SDS011;1026;51.460;7.252;2023-07-16T09:44:56;3.67;;;3.37;;
2041;SDS011;1026;51.460;7.252;2023-07-16T09:47:32;5.07;;;3.80;;
2041;SDS011;1026;51.460;7.252;2023-07-16T09:49:59;6.20;;;3.73;;
2041;SDS011;1026;51.460;7.252;2023-07-16T09:52:26;3.57;;;3.27;;
2041;SDS011;1026;51.460;7.252;2023-07-16T09:55:03;4.77;;;2.77;;
2041;SDS011;1026;51.460;7.252;2023-07-16T09:57:32;4.30;;;3.30;;
2041;SDS011;1026;51.460;7.252;2023-07-16T10:00:15;3.53;;;3.20;;
2041;SDS011;1026;51.460;7.252;2023-07-16T10:02:44;5.57;;;3.50;;
2041;SDS011;1026;51.460;7.252;2023-07-16T10:05:15;4.10;;;3.37;;
2041;SDS011;1026;51.460;7.252;2023-07-16T10:07:57;4.27;;;3.77;;
2041;SDS011;1026;51.460;7.252;2023-07-16T10:10:41;3.80;;;3.37;;
2041;SDS011;1026;51.460;7.252;2023-07-16T10:13:17;4.17;;;3.77;;
2041;SDS011;1026;51.460;7.252;2023-07-16T10:15:50;3.30;;;3.10;;
2041;SDS011;1026;51.460;7.252;2023-07-16T10:18:30;4.07;;;3.60;;
2041;SDS011;1026;51.460;7.252;2023-07-16T10:21:05;4.80;;;3.57;;
2041;SDS011;1026;51.460;7.252;2023-07-16T10:23:41;4.13;;;3.73;;
2041;SDS011;1026;51.460;7.252;2023-07-16T10:26:12;3.40;;;3.10;;
2041;SDS011;1026;51.460;7.252;2023-07-16T10:28:48;4.50;;;3.80;;
2041;SDS011;1026;51.460;7.252;2023-07-16T10:31:22;3.10;;;2.90;;
2041;SDS011;1026;51.460;7.252;2023-07-16T10:34:01;3.90;;;3.23;;
2041;SDS011;1026;51.460;7.252;2023-07-16T10:36:37;4.33;;;3.20;;
2041;SDS011;1026;51.460;7.252;2023-07-16T10:39:15;5.13;;;3.90;;
2041;SDS011;1026;51.460;7.252;2023-07-16T10:41:48;3.63;;;3.30;;
2041;SDS011;1026;51.460;7.252;2023-07-16T10:44:32;4.40;;;3.63;;
2041;SDS011;1026;51.460;7.252;2023-07-16T10:50:23;3.70;;;3.30;;
2041;SDS011;1026;51.460;7.252;2023-07-16T10:52:58;4.13;;;3.40;;
2041;SDS011;1026;51.460;7.252;2023-07-16T10:55:28;4.40;;;3.70;;
2041;SDS011;1026;51.460;7.252;2023-07-16T10:58:04;4.23;;;3.90;;
2041;SDS011;1026;51.460;7.252;2023-07-16T11:00:36;4.43;;;3.70;;
2041;SDS011;1026;51.460;7.252;2023-07-16T11:03:14;4.50;;;3.93;;
2041;SDS011;1026;51.460;7.252;2023-07-16T11:05:45;5.23;;;3.47;;
2041;SDS011;1026;51.460;7.252;2023-07-16T11:08:22;3.50;;;3.20;;
2041;SDS011;1026;51.460;7.252;2023-07-16T11:11:07;3.83;;;3.47;;
2041;SDS011;1026;51.460;7.252;2023-07-16T11:13:41;4.40;;;3.87;;
2041;SDS011;1026;51.460;7.252;2023-07-16T11:16:08;3.20;;;2.90;;
2041;SDS011;1026;51.460;7.252;2023-07-16T11:18:43;3.93;;;3.50;;
2041;SDS011;1026;51.460;7.252;2023-07-16T11:21:20;5.20;;;3.80;;
2041;SDS011;1026;51.460;7.252;2023-07-16T11:23:47;4.20;;;3.90;;
2041;SDS011;1026;51.460;7.252;2023-07-16T11:26:20;4.47;;;4.17;;
2041;SDS011;1026;51.460;7.252;2023-07-16T11:28:49;3.43;;;3.13;;
2041;SDS011;1026;51.460;7.252;2023-07-16T11:31:17;3.83;;;3.53;;
2041;SDS011;1026;51.460;7.252;2023-07-16T11:33:50;3.60;;;2.90;;
2041;SDS011;1026;51.460;7.252;2023-07-16T11:36:17;3.60;;;3.10;;
2041;SDS011;1026;51.460;7.252;2023-07-16T11:38:50;3.60;;;3.30;;
2041;SDS011;1026;51.460;7.252;2023-07-16T11:41:19;6.23;;;4.40;;
2041;SDS011;1026;51.460;7.252;2023-07-16T11:44:00;4.83;;;3.53;;
2041;SDS011;1026;51.460;7.252;2023-07-16T11:46:58;3.40;;;3.10;;
2041;SDS011;1026;51.460;7.252;2023-07-16T11:49:31;3.33;;;2.90;;
2041;SDS011;1026;51.460;7.252;2023-07-16T11:52:11;4.23;;;3.63;;
2041;SDS011;1026;51.460;7.252;2023-07-16T11:57:47;4.00;;;3.53;;
2041;SDS011;1026;51.460;7.252;2023-07-16T12:00:14;3.20;;;2.63;;
2041;SDS011;1026;51.460;7.252;2023-07-16T12:02:48;3.30;;;3.00;;
2041;SDS011;1026;51.460;7.252;2023-07-16T12:05:24;2.63;;;2.43;;
2041;SDS011;1026;51.460;7.252;2023-07-16T12:08:11;3.20;;;3.00;;
2041;SDS011;1026;51.460;7.252;2023-07-16T12:10:47;3.67;;;3.37;;
2041;SDS011;1026;51.460;7.252;2023-07-16T12:13:14;4.00;;;3.63;;
2041;SDS011;1026;51.460;7.252;2023-07-16T12:15:48;3.10;;;2.80;;
2041;SDS011;1026;51.460;7.252;2023-07-16T12:18:15;3.13;;;2.70;;
2041;SDS011;1026;51.460;7.252;2023-07-16T12:20:42;4.87;;;2.90;;
2041;SDS011;1026;51.460;7.252;2023-07-16T12:23:15;3.80;;;3.27;;
2041;SDS011;1026;51.460;7.252;2023-07-16T12:25:50;3.50;;;2.90;;
2041;SDS011;1026;51.460;7.252;2023-07-16T12:28:23;3.10;;;2.90;;
2041;SDS011;1026;51.460;7.252;2023-07-16T12:30:50;3.40;;;2.70;;
2041;SDS011;1026;51.460;7.252;2023-07-16T12:33:17;3.70;;;3.30;;
2041;SDS011;1026;51.460;7.252;2023-07-16T12:35:51;3.40;;;3.20;;
2041;SDS011;1026;51.460;7.252;2023-07-16T12:38:26;4.67;;;3.40;;
2041;SDS011;1026;51.460;7.252;2023-07-16T12:40:53;5.10;;;3.07;;
2041;SDS011;1026;51.460;7.252;2023-07-16T12:43:19;4.17;;;3.60;;
2041;SDS011;1026;51.460;7.252;2023-07-16T12:46:03;2.97;;;2.67;;
2041;SDS011;1026;51.460;7.252;2023-07-16T12:51:44;3.53;;;2.27;;
2041;SDS011;1026;51.460;7.252;2023-07-16T12:54:17;3.40;;;2.93;;
2041;SDS011;1026;51.460;7.252;2023-07-16T12:56:44;3.03;;;2.83;;
2041;SDS011;1026;51.460;7.252;2023-07-16T12:59:11;3.53;;;3.13;;
2041;SDS011;1026;51.460;7.252;2023-07-16T13:01:44;3.57;;;3.20;;
2041;SDS011;1026;51.460;7.252;2023-07-16T13:04:11;3.13;;;2.93;;
2041;SDS011;1026;51.460;7.252;2023-07-16T13:06:38;4.00;;;3.60;;
2041;SDS011;1026;51.460;7.252;2023-07-16T13:09:11;3.00;;;2.80;;
2041;SDS011;1026;51.460;7.252;2023-07-16T13:11:38;3.10;;;2.80;;
2041;SDS011;1026;51.460;7.252;2023-07-16T13:14:11;3.47;;;3.23;;
2041;SDS011;1026;51.460;7.252;2023-07-16T13:16:38;3.17;;;2.93;;
2041;SDS011;1026;51.460;7.252;2023-07-16T13:19:11;4.33;;;3.17;;
2041;SDS011;1026;51.460;7.252;2023-07-16T13:21:44;3.30;;;3.00;;
2041;SDS011;1026;51.460;7.252;2023-07-16T13:24:17;6.77;;;3.97;;
2041;SDS011;1026;51.460;7.252;2023-07-16T13:26:44;3.70;;;3.37;;
2041;SDS011;1026;51.460;7.252;2023-07-16T13:29:17;2.70;;;2.50;;
2041;SDS011;1026;51.460;7.252;2023-07-16T13:31:44;3.10;;;2.70;;
2041;SDS011;1026;51.460;7.252;2023-07-16T13:34:11;3.17;;;2.97;;
2041;SDS011;1026;51.460;7.252;2023-07-16T13:36:44;3.77;;;3.00;;
2041;SDS011;1026;51.460;7.252;2023-07-16T13:39:11;4.30;;;3.10;;
2041;SDS011;1026;51.460;7.252;2023-07-16T13:41:46;3.37;;;3.07;;
2041;SDS011;1026;51.460;7.252;2023-07-16T13:44:25;3.83;;;3.53;;
2041;SDS011;1026;51.460;7.252;2023-07-16T13:50:04;3.67;;;3.37;;
2041;SDS011;1026;51.460;7.252;2023-07-16T13:52:31;3.33;;;3.03;;
2041;SDS011;1026;51.460;7.252;2023-07-16T13:55:26;3.10;;;2.90;;
2041;SDS011;1026;51.460;7.252;2023-07-16T13:58:03;2.80;;;2.60;;
2041;SDS011;1026;51.460;7.252;2023-07-16T14:00:36;3.07;;;2.87;;
2041;SDS011;1026;51.460;7.252;2023-07-16T14:03:03;3.57;;;3.23;;
2041;SDS011;1026;51.460;7.252;2023-07-16T14:05:30;3.80;;;3.50;;
2041;SDS011;1026;51.460;7.252;2023-07-16T14:08:07;3.33;;;3.03;;
2041;SDS011;1026;51.460;7.252;2023-07-16T14:10:41;3.60;;;2.40;;
2041;SDS011;1026;51.460;7.252;2023-07-16T14:13:08;3.80;;;2.97;;
2041;SDS011;1026;51.460;7.252;2023-07-16T14:15:42;3.97;;;3.17;;
2041;SDS011;1026;51.460;7.252;2023-07-16T14:18:09;3.90;;;3.60;;
2041;SDS011;1026;51.460;7.252;2023-07-16T14:20:37;3.00;;;2.80;;
2041;SDS011;1026;51.460;7.252;2023-07-16T14:23:14;3.30;;;3.10;;
2041;SDS011;1026;51.460;7.252;2023-07-16T14:25:41;4.33;;;3.50;;
2041;SDS011;1026;51.460;7.252;2023-07-16T14:28:14;4.00;;;3.70;;
2041;SDS011;1026;51.460;7.252;2023-07-16T14:30:41;3.17;;;2.87;;
2041;SDS011;1026;51.460;7.252;2023-07-16T14:33:14;3.30;;;3.10;;
2041;SDS011;1026;51.460;7.252;2023-07-16T14:35:41;3.43;;;3.13;;
2041;SDS011;1026;51.460;7.252;2023-07-16T14:38:08;2.90;;;2.70;;
2041;SDS011;1026;51.460;7.252;2023-07-16T14:40:41;2.80;;;2.60;;
2041;SDS011;1026;51.460;7.252;2023-07-16T14:43:15;3.20;;;2.90;;
2041;SDS011;1026;51.460;7.252;2023-07-16T14:45:49;3.50;;;3.20;;
2041;SDS011;1026;51.460;7.252;2023-07-16T14:48:29;2.87;;;2.67;;
2041;SDS011;1026;51.460;7.252;2023-07-16T14:51:02;3.73;;;3.07;;
2041;SDS011;1026;51.460;7.252;2023-07-16T14:53:29;3.23;;;2.93;;
2041;SDS011;1026;51.460;7.252;2023-07-16T14:56:03;3.67;;;3.30;;
2041;SDS011;1026;51.460;7.252;2023-07-16T14:58:44;2.77;;;2.57;;
2041;SDS011;1026;51.460;7.252;2023-07-16T15:01:18;2.77;;;2.57;;
2041;SDS011;1026;51.460;7.252;2023-07-16T15:03:51;3.67;;;3.07;;
2041;SDS011;1026;51.460;7.252;2023-07-16T15:06:18;3.60;;;3.20;;
2041;SDS011;1026;51.460;7.252;2023-07-16T15:08:45;4.10;;;3.70;;
2041;SDS011;1026;51.460;7.252;2023-07-16T15:11:19;4.13;;;3.50;;
2041;SDS011;1026;51.460;7.252;2023-07-16T15:13:46;3.40;;;3.17;;
2041;SDS011;1026;51.460;7.252;2023-07-16T15:16:40;3.57;;;3.27;;
2041;SDS011;1026;51.460;7.252;2023-07-16T15:19:07;3.10;;;2.57;;
2041;SDS011;1026;51.460;7.252;2023-07-16T15:21:47;3.63;;;3.33;;
2041;SDS011;1026;51.460;7.252;2023-07-16T15:24:20;2.60;;;2.40;;
2041;SDS011;1026;51.460;7.252;2023-07-16T15:26:47;3.60;;;3.30;;
2041;SDS011;1026;51.460;7.252;2023-07-16T15:29:14;3.87;;;3.47;;
2041;SDS011;1026;51.460;7.252;2023-07-16T15:31:49;3.03;;;2.83;;
2041;SDS011;1026;51.460;7.252;2023-07-16T15:34:16;3.60;;;2.97;;
2041;SDS011;1026;51.460;7.252;2023-07-16T15:36:49;3.60;;;3.30;;
2041;SDS011;1026;51.460;7.252;2023-07-16T15:39:16;3.00;;;2.80;;
2041;SDS011;1026;51.460;7.252;2023-07-16T15:41:51;4.03;;;3.57;;
2041;SDS011;1026;51.460;7.252;2023-07-16T15:44:24;3.33;;;3.10;;
2041;SDS011;1026;51.460;7.252;2023-07-16T15:47:04;2.73;;;2.53;;
2041;SDS011;1026;51.460;7.252;2023-07-16T15:49:38;3.67;;;3.37;;
2041;SDS011;1026;51.460;7.252;2023-07-16T15:52:11;6.43;;;3.20;;
2041;SDS011;1026;51.460;7.252;2023-07-16T15:54:44;3.10;;;2.90;;
2041;SDS011;1026;51.460;7.252;2023-07-16T15:57:11;2.80;;;2.60;;
2041;SDS011;1026;51.460;7.252;2023-07-16T15:59:44;3.20;;;3.00;;